createdAt,value
2022-10-29T00:01:16.611Z,91.03
2022-10-29T00:03:47.241Z,91.70
2022-10-29T00:06:15.974Z,91.74
2022-10-29T00:08:44.396Z,91.74
2022-10-29T00:11:15.674Z,91.47
2022-10-29T00:13:45.061Z,91.39
2022-10-29T00:16:17.212Z,91.71
2022-10-29T00:18:46.013Z,91.90
2022-10-29T00:21:17.479Z,91.95
2022-10-29T00:23:45.828Z,91.98
2022-10-29T00:26:14.747Z,92.57
2022-10-29T00:28:43.958Z,93.08
2022-10-29T00:31:18.840Z,93.21
2022-10-29T00:33:47.844Z,93.47
2022-10-29T00:36:18.413Z,93.58
2022-10-29T00:38:46.959Z,93.71
2022-10-29T00:41:18.381Z,93.78
2022-10-29T00:43:50.788Z,93.88
2022-10-29T00:46:28.172Z,93.46
2022-10-29T00:48:57.830Z,93.23
2022-10-29T00:51:28.582Z,93.16
2022-10-29T00:54:02.670Z,93.29
2022-10-29T00:56:35.489Z,93.78
2022-10-29T00:59:04.353Z,94.09
2022-10-29T01:01:34.085Z,93.96
2022-10-29T01:04:03.116Z,94.05
2022-10-29T01:06:32.688Z,93.59
2022-10-29T01:09:00.973Z,93.78
2022-10-29T01:11:44.945Z,93.90
2022-10-29T01:14:24.400Z,94.23
2022-10-29T01:17:01.335Z,94.34
2022-10-29T01:20:02.200Z,94.19
2022-10-29T01:22:36.436Z,94.36
2022-10-29T01:25:51.619Z,94.82
2022-10-29T01:28:34.754Z,94.76
2022-10-29T01:31:19.234Z,94.53
2022-10-29T01:33:56.506Z,94.32
2022-10-29T01:36:34.853Z,93.73
2022-10-29T01:39:10.639Z,93.17
2022-10-29T01:41:50.607Z,92.86
2022-10-29T01:44:31.287Z,92.65
2022-10-29T01:47:02.285Z,92.50
2022-10-29T01:49:34.381Z,92.81
2022-10-29T01:52:04.789Z,93.43
2022-10-29T01:54:33.174Z,93.72
2022-10-29T01:57:02.164Z,94.04
2022-10-29T01:59:51.304Z,93.95
2022-10-29T02:02:32.114Z,94.15
2022-10-29T02:05:13.444Z,94.60
2022-10-29T02:07:50.953Z,94.61
2022-10-29T02:10:28.829Z,94.39
2022-10-29T02:12:58.842Z,94.30
2022-10-29T02:15:32.997Z,94.35
2022-10-29T02:18:05.325Z,94.32
2022-10-29T02:20:34.172Z,94.39
2022-10-29T02:23:02.552Z,94.19
2022-10-29T02:25:30.861Z,94.72
2022-10-29T02:28:00.560Z,95.91
2022-10-29T02:30:28.854Z,96.19
2022-10-29T02:32:57.425Z,95.85
2022-10-29T02:35:27.364Z,96.02
2022-10-29T02:37:55.599Z,95.91
2022-10-29T02:40:23.820Z,96.18
2022-10-29T02:42:52.066Z,96.05
2022-10-29T02:45:20.305Z,96.24
2022-10-29T02:47:48.575Z,96.43
2022-10-29T02:50:17.008Z,96.55
2022-10-29T02:52:46.643Z,96.25
2022-10-29T02:55:15.053Z,96.04
2022-10-29T02:57:44.760Z,95.75
2022-10-29T03:00:15.067Z,95.39
2022-10-29T03:02:43.353Z,94.81
2022-10-29T03:05:12.178Z,94.55
2022-10-29T03:07:40.443Z,94.52
2022-10-29T03:10:11.208Z,94.04
2022-10-29T03:12:39.288Z,93.94
2022-10-29T03:15:09.019Z,93.71
2022-10-29T03:17:37.319Z,93.83
2022-10-29T03:20:07.322Z,94.35
2022-10-29T03:22:37.720Z,95.13
2022-10-29T03:25:07.097Z,95.32
2022-10-29T03:27:42.801Z,95.62
2022-10-29T03:30:13.485Z,95.18
2022-10-29T03:32:41.753Z,94.76
2022-10-29T03:35:11.450Z,95.05
2022-10-29T03:37:39.852Z,95.21
2022-10-29T03:40:10.189Z,96.29
2022-10-29T03:42:40.807Z,97.01
2022-10-29T03:45:11.798Z,98.35
2022-10-29T03:47:40.084Z,98.19
2022-10-29T03:50:10.118Z,98.50
2022-10-29T03:52:38.473Z,99.11
2022-10-29T03:55:08.573Z,99.59
2022-10-29T03:57:37.029Z,98.90
2022-10-29T04:00:08.235Z,99.03
2022-10-29T04:02:42.281Z,98.93
2022-10-29T04:05:10.859Z,98.51
2022-10-29T04:07:39.133Z,98.23
2022-10-29T04:10:08.268Z,98.54
2022-10-29T04:12:36.481Z,98.19
2022-10-29T04:15:07.503Z,98.23
2022-10-29T04:17:35.860Z,97.89
2022-10-29T04:20:09.962Z,97.50
2022-10-29T04:27:44.771Z,96.60
2022-10-29T04:28:44.488Z,97.46
2022-10-29T04:31:14.373Z,97.99
2022-10-29T04:33:42.737Z,97.80
2022-10-29T04:36:11.789Z,97.88
2022-10-29T04:38:40.039Z,98.25
2022-10-29T04:41:08.348Z,98.43
2022-10-29T04:43:36.591Z,98.50
2022-10-29T04:46:05.157Z,98.23
2022-10-29T04:48:34.847Z,98.06
2022-10-29T04:51:03.277Z,97.94
2022-10-29T04:53:31.574Z,97.70
2022-10-29T04:56:02.182Z,97.26
2022-10-29T04:58:30.346Z,97.60
2022-10-29T05:01:02.895Z,98.06
2022-10-29T05:03:31.418Z,97.52
2022-10-29T05:06:04.307Z,96.45
2022-10-29T05:08:33.186Z,95.32
2022-10-29T05:11:04.024Z,94.91
2022-10-29T05:13:32.416Z,94.32
2022-10-29T05:16:01.265Z,93.66
2022-10-29T05:18:29.725Z,93.13
2022-10-29T05:21:00.154Z,92.58
2022-10-29T05:23:28.531Z,91.98
2022-10-29T05:25:57.348Z,91.21
2022-10-29T05:28:25.950Z,90.56
2022-10-29T05:30:55.092Z,91.17
2022-10-29T05:33:25.918Z,91.55
2022-10-29T05:35:54.277Z,91.40
2022-10-29T05:38:24.058Z,90.77
2022-10-29T05:40:52.271Z,90.58
2022-10-29T05:43:20.543Z,90.32
2022-10-29T05:45:48.814Z,89.95
2022-10-29T05:48:17.066Z,89.61
2022-10-29T05:50:45.726Z,89.38
2022-10-29T05:53:15.740Z,90.02
2022-10-29T05:55:45.397Z,90.66
2022-10-29T05:58:15.421Z,91.08
2022-10-29T06:00:46.434Z,91.49
2022-10-29T06:03:16.880Z,91.37
2022-10-29T06:05:45.803Z,91.58
2022-10-29T06:08:14.179Z,91.62
2022-10-29T06:10:44.068Z,91.86
2022-10-29T06:13:13.557Z,93.02
2022-10-29T06:15:42.161Z,94.09
2022-10-29T06:18:11.318Z,94.04
2022-10-29T06:20:40.451Z,93.89
2022-10-29T06:23:08.998Z,94.15
2022-10-29T06:25:37.366Z,93.82
2022-10-29T06:28:09.097Z,93.35
2022-10-29T06:30:38.262Z,93.29
2022-10-29T06:33:07.012Z,93.17
2022-10-29T06:38:11.087Z,93.34
2022-10-29T06:40:41.054Z,93.73
2022-10-29T06:43:13.069Z,93.46
2022-10-29T06:45:41.457Z,93.45
2022-10-29T06:48:11.560Z,93.81
2022-10-29T06:50:39.813Z,93.72
2022-10-29T06:53:12.606Z,93.88
2022-10-29T06:55:41.506Z,94.70
2022-10-29T06:58:13.977Z,94.83
2022-10-29T07:00:43.103Z,94.87
2022-10-29T07:03:14.490Z,95.57
2022-10-29T07:05:42.869Z,98.33
2022-10-29T07:08:11.928Z,100.00
2022-10-29T07:10:40.856Z,100.00
2022-10-29T07:13:11.620Z,100.00
2022-10-29T07:15:39.884Z,100.00
2022-10-29T07:18:09.695Z,100.00
2022-10-29T07:20:41.014Z,100.00
2022-10-29T07:23:10.109Z,100.00
2022-10-29T07:25:39.897Z,100.00
2022-10-29T07:28:13.050Z,100.00
2022-10-29T07:30:41.609Z,100.00
2022-10-29T07:33:09.949Z,100.00
2022-10-29T07:35:38.566Z,100.00
2022-10-29T07:38:10.883Z,100.00
2022-10-29T07:40:41.109Z,100.00
2022-10-29T07:43:10.839Z,100.00
2022-10-29T07:45:39.080Z,100.00
2022-10-29T07:48:08.810Z,100.00
2022-10-29T07:50:38.539Z,100.00
2022-10-29T07:53:08.128Z,100.00
2022-10-29T07:55:37.015Z,100.00
2022-10-29T07:58:07.545Z,100.00
2022-10-29T08:00:39.174Z,100.00
2022-10-29T08:03:08.331Z,100.00
2022-10-29T08:05:36.712Z,100.00
2022-10-29T08:08:05.608Z,100.00
2022-10-29T08:10:36.008Z,100.00
2022-10-29T08:13:06.349Z,100.00
2022-10-29T08:15:36.972Z,100.00
2022-10-29T08:18:13.038Z,100.00
2022-10-29T08:20:41.419Z,100.00
2022-10-29T08:23:10.008Z,100.00
2022-10-29T08:25:41.552Z,100.00
2022-10-29T08:28:12.498Z,100.00
2022-10-29T08:30:44.023Z,100.00
2022-10-29T08:33:12.822Z,100.00
2022-10-29T08:35:41.104Z,100.00
2022-10-29T08:38:09.392Z,100.00
2022-10-29T08:40:51.591Z,100.00
2022-10-29T08:44:04.300Z,100.00
2022-10-29T08:46:45.403Z,100.00
2022-10-29T08:49:19.780Z,100.00
2022-10-29T08:51:55.455Z,100.00
2022-10-29T08:54:30.937Z,100.00
2022-10-29T08:57:05.695Z,100.00
2022-10-29T08:59:42.135Z,100.00
2022-10-29T09:02:18.427Z,100.00
2022-10-29T09:04:46.922Z,100.00
2022-10-29T09:07:38.757Z,100.00
2022-10-29T09:10:13.804Z,100.00
2022-10-29T09:13:02.602Z,100.00
2022-10-29T09:15:56.383Z,100.00
2022-10-29T09:18:48.825Z,100.00
2022-10-29T09:21:29.526Z,100.00
2022-10-29T09:24:08.706Z,100.00
2022-10-29T09:26:58.613Z,100.00
2022-10-29T09:29:52.809Z,100.00
2022-10-29T09:32:26.155Z,100.00
2022-10-29T09:35:02.464Z,100.00
2022-10-29T09:37:42.555Z,100.00
2022-10-29T09:40:25.727Z,100.00
2022-10-29T09:42:55.314Z,100.00
2022-10-29T09:45:33.404Z,100.00
2022-10-29T09:48:12.526Z,100.00
2022-10-29T09:50:53.821Z,100.00
2022-10-29T09:53:22.245Z,100.00
2022-10-29T09:55:53.629Z,100.00
2022-10-29T09:58:24.335Z,100.00
2022-10-29T10:00:53.118Z,99.71
2022-10-29T10:03:27.880Z,98.13
2022-10-29T10:06:06.847Z,97.07
2022-10-29T10:08:37.320Z,95.39
2022-10-29T10:11:08.067Z,95.04
2022-10-29T10:13:38.453Z,94.48
2022-10-29T10:16:08.062Z,95.51
2022-10-29T10:21:27.312Z,94.95
2022-10-29T10:23:57.638Z,94.34
2022-10-29T10:26:39.435Z,93.15
2022-10-29T10:29:15.091Z,93.07
2022-10-29T10:31:45.381Z,91.04
2022-10-29T10:34:20.662Z,89.90
2022-10-29T10:36:56.420Z,90.12
2022-10-29T10:39:29.356Z,88.18
2022-10-29T10:42:00.275Z,86.72
2022-10-29T10:44:29.578Z,85.40
2022-10-29T10:47:06.595Z,87.18
2022-10-29T10:49:37.449Z,86.92
2022-10-29T10:52:19.847Z,87.73
2022-10-29T10:54:56.542Z,87.60
2022-10-29T10:57:29.381Z,88.09
2022-10-29T11:00:07.941Z,87.69
2022-10-29T11:02:49.410Z,87.93
2022-10-29T11:05:20.673Z,88.50
2022-10-29T11:08:00.329Z,87.37
2022-10-29T11:10:35.974Z,86.92
2022-10-29T11:13:11.130Z,87.57
2022-10-29T11:15:45.514Z,88.14
2022-10-29T11:18:19.993Z,88.23
2022-10-29T11:21:05.391Z,87.02
2022-10-29T11:23:49.430Z,86.88
2022-10-29T11:26:26.615Z,85.52
2022-10-29T11:29:01.663Z,83.87
2022-10-29T11:31:41.304Z,83.50
2022-10-29T11:34:18.169Z,83.78
2022-10-29T11:36:53.443Z,83.49
2022-10-29T11:39:32.090Z,82.69
2022-10-29T11:42:02.400Z,81.31
2022-10-29T11:44:38.522Z,82.22
2022-10-29T11:47:41.526Z,81.28
2022-10-29T11:50:27.246Z,79.96
2022-10-29T11:53:03.572Z,78.07
2022-10-29T11:55:43.354Z,78.89
2022-10-29T11:58:18.769Z,77.77
2022-10-29T12:00:58.860Z,77.35
2022-10-29T12:03:46.890Z,75.54
2022-10-29T12:06:24.146Z,76.66
2022-10-29T12:09:04.877Z,75.47
2022-10-29T12:11:43.537Z,74.26
2022-10-29T12:14:26.314Z,75.15
2022-10-29T12:17:03.674Z,73.90
2022-10-29T12:19:46.593Z,73.22
2022-10-29T12:22:29.759Z,74.26
2022-10-29T12:25:20.335Z,73.66
2022-10-29T12:28:03.925Z,72.58
2022-10-29T12:30:38.732Z,73.02
2022-10-29T12:33:16.854Z,72.64
2022-10-29T12:35:55.556Z,72.57
2022-10-29T12:38:37.811Z,71.86
2022-10-29T12:41:11.025Z,71.06
2022-10-29T12:43:41.561Z,72.92
2022-10-29T12:46:21.615Z,71.46
2022-10-29T12:49:02.268Z,72.86
2022-10-29T12:51:42.676Z,72.22
2022-10-29T12:54:23.417Z,72.64
2022-10-29T12:56:51.547Z,72.31
2022-10-29T12:59:36.601Z,73.71
2022-10-29T13:02:47.121Z,72.71
2022-10-29T13:05:40.465Z,73.09
2022-10-29T13:08:35.087Z,73.03
2022-10-29T13:11:03.775Z,73.89
2022-10-29T13:14:00.497Z,74.56
2022-10-29T13:16:33.110Z,73.00
2022-10-29T13:19:25.120Z,72.75
2022-10-29T13:22:05.577Z,73.93
2022-10-29T13:24:34.181Z,74.19
2022-10-29T13:27:09.613Z,74.77
2022-10-29T13:29:49.430Z,74.77
2022-10-29T13:32:39.535Z,74.97
2022-10-29T13:35:42.370Z,74.72
2022-10-29T13:38:17.107Z,75.40
2022-10-29T13:41:13.154Z,74.83
2022-10-29T13:43:44.918Z,75.44
2022-10-29T13:46:45.532Z,75.68
2022-10-29T13:49:20.603Z,75.96
2022-10-29T13:51:59.156Z,76.49
2022-10-29T13:54:39.711Z,76.37
2022-10-29T13:57:19.759Z,76.54
2022-10-29T13:59:55.323Z,76.50
2022-10-29T14:02:36.747Z,76.61
2022-10-29T14:05:15.483Z,76.18
2022-10-29T14:07:56.260Z,76.13
2022-10-29T14:10:28.110Z,76.25
2022-10-29T14:13:01.905Z,75.68
2022-10-29T14:15:30.273Z,74.94
2022-10-29T14:17:58.517Z,74.82
2022-10-29T14:20:29.811Z,75.56
2022-10-29T14:23:09.143Z,75.28
2022-10-29T14:25:37.885Z,75.58
2022-10-29T14:28:19.141Z,75.62
2022-10-29T14:30:49.513Z,75.16
2022-10-29T14:33:26.476Z,74.42
2022-10-29T14:36:01.990Z,74.42
2022-10-29T14:38:39.517Z,75.43
2022-10-29T14:41:07.873Z,75.83
2022-10-29T14:43:36.764Z,76.91
2022-10-29T14:46:23.560Z,76.94
2022-10-29T14:49:14.028Z,76.83
2022-10-29T14:51:52.370Z,77.42
2022-10-29T14:54:26.723Z,77.65
2022-10-29T14:56:59.394Z,77.32
2022-10-29T14:59:31.144Z,77.49
2022-10-29T15:02:17.265Z,77.70
2022-10-29T15:04:56.123Z,77.78
2022-10-29T15:07:34.657Z,77.58
2022-10-29T15:10:26.402Z,77.15
2022-10-29T15:12:55.373Z,77.03
2022-10-29T15:15:28.269Z,77.33
2022-10-29T15:18:01.737Z,76.83
2022-10-29T15:20:36.990Z,76.84
2022-10-29T15:23:05.899Z,76.53
2022-10-29T15:25:39.282Z,76.03
2022-10-29T15:28:11.942Z,76.02
2022-10-29T15:30:41.218Z,75.28
2022-10-29T15:33:19.161Z,75.30
2022-10-29T15:35:53.668Z,74.69
2022-10-29T15:39:12.929Z,74.59
2022-10-29T15:41:49.255Z,74.82
2022-10-29T15:44:37.142Z,74.69
2022-10-29T15:47:22.382Z,74.46
2022-10-29T15:49:50.720Z,74.56
2022-10-29T15:52:20.285Z,74.23
2022-10-29T15:54:49.069Z,75.05
2022-10-29T15:57:18.917Z,75.83
2022-10-29T15:59:47.240Z,76.13
2022-10-29T16:02:18.519Z,76.44
2022-10-29T16:04:47.038Z,76.66
2022-10-29T16:07:15.803Z,76.89
2022-10-29T16:09:47.896Z,77.18
2022-10-29T16:12:17.782Z,77.12
2022-10-29T16:14:46.271Z,76.62
2022-10-29T16:17:16.676Z,76.67
2022-10-29T16:19:45.281Z,76.61
2022-10-29T16:22:16.550Z,76.06
2022-10-29T16:24:44.871Z,75.89
2022-10-29T16:27:18.824Z,75.91
2022-10-29T16:29:49.581Z,75.51
2022-10-29T16:32:20.831Z,75.79
2022-10-29T16:34:49.291Z,75.49
2022-10-29T16:37:20.364Z,74.49
2022-10-29T16:39:48.745Z,74.26
2022-10-29T16:42:30.386Z,74.16
2022-10-29T16:44:59.042Z,73.72
2022-10-29T16:47:27.488Z,73.45
2022-10-29T16:49:56.201Z,73.50
2022-10-29T16:52:28.846Z,73.10
2022-10-29T16:54:58.101Z,72.70
2022-10-29T16:57:29.425Z,72.42
2022-10-29T16:59:57.714Z,72.05
2022-10-29T17:02:26.095Z,72.72
2022-10-29T17:04:54.442Z,72.76
2022-10-29T17:07:22.746Z,72.89
2022-10-29T17:09:51.130Z,73.16
2022-10-29T17:12:19.470Z,73.41
2022-10-29T17:14:49.340Z,73.79
2022-10-29T17:17:17.656Z,73.90
2022-10-29T17:19:45.905Z,73.87
2022-10-29T17:22:16.161Z,73.94
2022-10-29T17:24:45.137Z,73.95
2022-10-29T17:27:13.865Z,73.96
2022-10-29T17:29:42.213Z,74.16
2022-10-29T17:32:11.887Z,74.24
2022-10-29T17:34:40.262Z,74.53
2022-10-29T17:37:09.180Z,75.18
2022-10-29T17:39:37.602Z,76.08
2022-10-29T17:42:06.369Z,76.58
2022-10-29T17:44:36.195Z,76.86
2022-10-29T17:47:04.527Z,77.26
2022-10-29T17:49:34.189Z,77.34
2022-10-29T17:52:02.523Z,77.04
2022-10-29T17:54:31.774Z,76.69
2022-10-29T17:57:02.214Z,76.25
2022-10-29T17:59:30.482Z,75.95
2022-10-29T18:01:58.947Z,75.83
2022-10-29T18:04:27.602Z,74.56
2022-10-29T18:06:57.383Z,73.81
2022-10-29T18:09:25.690Z,73.04
2022-10-29T18:11:54.023Z,72.67
2022-10-29T18:14:22.301Z,71.95
2022-10-29T18:16:50.874Z,71.44
2022-10-29T18:19:19.212Z,70.79
2022-10-29T18:21:47.805Z,70.53
2022-10-29T18:24:19.357Z,70.06
2022-10-29T18:26:51.108Z,69.62
2022-10-29T18:29:19.647Z,69.31
2022-10-29T18:31:48.208Z,68.95
2022-10-29T18:34:17.058Z,68.76
2022-10-29T18:36:47.451Z,68.52
2022-10-29T18:39:17.267Z,68.32
2022-10-29T18:41:45.481Z,68.10
2022-10-29T18:44:13.762Z,68.11
2022-10-29T18:46:42.108Z,67.73
2022-10-29T18:49:13.019Z,67.62
2022-10-29T18:51:41.605Z,67.54
2022-10-29T18:54:12.774Z,67.25
2022-10-29T18:56:42.655Z,67.30
2022-10-29T18:59:12.774Z,67.48
2022-10-29T19:01:41.942Z,67.57
2022-10-29T19:04:15.353Z,67.41
2022-10-29T19:06:44.190Z,67.64
2022-10-29T19:09:13.396Z,67.60
2022-10-29T19:11:43.065Z,67.74
2022-10-29T19:14:14.731Z,67.87
2022-10-29T19:16:43.073Z,67.87
2022-10-29T19:19:13.402Z,67.85
2022-10-29T19:21:43.248Z,67.99
2022-10-29T19:24:15.222Z,68.12
2022-10-29T19:26:45.437Z,68.06
2022-10-29T19:29:14.471Z,68.23
2022-10-29T19:31:45.789Z,68.34
2022-10-29T19:34:14.263Z,68.38
2022-10-29T19:36:42.604Z,68.27
2022-10-29T19:39:10.908Z,68.35
2022-10-29T19:41:39.205Z,68.29
2022-10-29T19:44:08.961Z,68.28
2022-10-29T19:46:37.373Z,68.06
2022-10-29T19:49:05.690Z,68.39
2022-10-29T19:51:34.051Z,68.23
2022-10-29T19:54:04.085Z,68.47
2022-10-29T19:56:32.504Z,68.51
2022-10-29T19:59:00.914Z,68.52
2022-10-29T20:01:30.727Z,68.55
2022-10-29T20:03:59.656Z,68.62
2022-10-29T20:06:28.098Z,68.84
2022-10-29T20:08:56.510Z,68.81
2022-10-29T20:11:24.831Z,69.01
2022-10-29T20:13:53.230Z,69.09
2022-10-29T20:16:22.644Z,69.18
2022-10-29T20:18:52.924Z,69.03
2022-10-29T20:21:21.278Z,69.18
2022-10-29T20:23:49.565Z,69.10
2022-10-29T20:26:17.925Z,69.13
2022-10-29T20:28:46.184Z,68.99
2022-10-29T20:31:29.761Z,68.87
2022-10-29T20:34:01.923Z,68.98
2022-10-29T20:36:32.474Z,68.99
2022-10-29T20:39:00.920Z,68.92
2022-10-29T20:41:30.277Z,69.08
2022-10-29T20:44:01.200Z,69.06
2022-10-29T20:46:29.885Z,68.97
2022-10-29T20:49:00.169Z,69.08
2022-10-29T20:51:30.280Z,69.20
2022-10-29T20:53:58.582Z,69.15
2022-10-29T20:56:28.683Z,69.29
2022-10-29T20:58:57.083Z,69.44
2022-10-29T21:01:25.870Z,69.51
2022-10-29T21:03:54.440Z,69.50
2022-10-29T21:06:24.457Z,69.67
2022-10-29T21:08:53.921Z,69.87
2022-10-29T21:11:23.992Z,69.88
2022-10-29T21:13:52.517Z,70.10
2022-10-29T21:16:24.307Z,70.04
2022-10-29T21:18:55.881Z,70.17
2022-10-29T21:21:26.441Z,70.19
2022-10-29T21:23:55.080Z,70.38
2022-10-29T21:26:26.878Z,70.28
2022-10-29T21:28:55.986Z,70.40
2022-10-29T21:31:25.294Z,70.54
2022-10-29T21:33:54.637Z,70.69
2022-10-29T21:36:25.052Z,70.69
2022-10-29T21:38:53.479Z,70.95
2022-10-29T21:41:21.765Z,71.25
2022-10-29T21:43:50.089Z,71.46
2022-10-29T21:46:18.339Z,71.70
2022-10-29T21:48:46.652Z,72.07
2022-10-29T21:51:17.167Z,72.45
2022-10-29T21:53:46.878Z,72.55
2022-10-29T21:56:16.569Z,72.63
2022-10-29T21:58:45.219Z,72.80
2022-10-29T22:01:15.770Z,72.66
2022-10-29T22:03:46.182Z,72.87
2022-10-29T22:06:16.825Z,72.82
2022-10-29T22:08:47.109Z,72.93
2022-10-29T22:11:16.960Z,72.94
2022-10-29T22:13:45.416Z,73.04
2022-10-29T22:16:13.889Z,73.03
2022-10-29T22:18:42.620Z,73.00
2022-10-29T22:21:14.892Z,72.85
2022-10-29T22:23:46.232Z,72.93
2022-10-29T22:26:17.403Z,72.79
2022-10-29T22:28:47.084Z,72.95
2022-10-29T22:31:16.969Z,72.95
2022-10-29T22:33:45.875Z,72.98
2022-10-29T22:36:16.359Z,73.18
2022-10-29T22:38:46.050Z,73.24
2022-10-29T22:41:16.887Z,73.26
2022-10-29T22:43:45.289Z,73.38
2022-10-29T22:46:15.683Z,73.36
2022-10-29T22:48:44.366Z,73.57
2022-10-29T22:51:15.486Z,73.40
2022-10-29T22:53:44.314Z,73.44
2022-10-29T22:56:14.988Z,73.51
2022-10-29T22:58:45.102Z,73.48
2022-10-29T23:01:16.500Z,73.66
2022-10-29T23:03:46.040Z,73.88
2022-10-29T23:06:19.355Z,74.13
2022-10-29T23:08:48.944Z,73.97
2022-10-29T23:11:21.386Z,74.07
2022-10-29T23:13:51.420Z,74.25
2022-10-29T23:16:20.465Z,74.20
2022-10-29T23:18:50.421Z,74.51
2022-10-29T23:21:19.677Z,74.50
2022-10-29T23:23:49.770Z,74.72
2022-10-29T23:26:21.465Z,74.67
2022-10-29T23:28:50.353Z,74.76
2022-10-29T23:31:21.092Z,74.65
2022-10-29T23:33:51.763Z,74.77
2022-10-29T23:36:21.548Z,74.73
2022-10-29T23:38:51.211Z,74.82
2022-10-29T23:41:20.876Z,74.92
2022-10-29T23:43:49.177Z,74.85
2022-10-29T23:46:17.564Z,74.90
2022-10-29T23:48:45.995Z,75.33
2022-10-29T23:51:14.280Z,75.40
2022-10-29T23:53:42.730Z,75.45
2022-10-29T23:56:11.084Z,75.53
2022-10-29T23:58:40.890Z,75.56
